createdAt,value
2022-08-08T00:02:32.858Z,24.44
2022-08-08T00:05:09.862Z,24.48
2022-08-08T00:08:03.315Z,24.43
2022-08-08T00:10:45.412Z,24.37
2022-08-08T00:14:16.679Z,24.21
2022-08-08T00:16:13.016Z,24.14
2022-08-08T00:18:50.170Z,24.13
2022-08-08T00:21:24.606Z,24.10
2022-08-08T00:23:54.368Z,24.10
2022-08-08T00:26:31.633Z,24.13
2022-08-08T00:29:03.076Z,24.14
2022-08-08T00:32:16.201Z,24.15
2022-08-08T00:34:46.934Z,24.19
2022-08-08T00:37:45.133Z,24.18
2022-08-08T00:41:10.632Z,24.22
2022-08-08T00:43:20.382Z,24.27
2022-08-08T00:45:48.043Z,24.27
2022-08-08T00:48:30.148Z,24.26
2022-08-08T00:51:18.275Z,24.30
2022-08-08T00:54:13.654Z,24.20
2022-08-08T00:57:02.262Z,24.07
2022-08-08T00:59:50.834Z,23.99
2022-08-08T01:03:15.392Z,23.93
2022-08-08T01:05:42.274Z,23.85
2022-08-08T01:08:52.464Z,23.82
2022-08-08T01:11:24.318Z,23.76
2022-08-08T01:14:16.468Z,23.81
2022-08-08T01:16:46.382Z,23.96
2022-08-08T01:19:52.412Z,23.99
2022-08-08T01:22:43.806Z,23.84
2022-08-08T01:25:40.115Z,23.79
2022-08-08T01:28:41.936Z,23.73
2022-08-08T01:32:06.631Z,23.68
2022-08-08T01:34:36.365Z,23.67
2022-08-08T01:37:51.140Z,23.61
2022-08-08T01:40:14.597Z,23.59
2022-08-08T01:42:51.878Z,23.60
2022-08-08T01:45:41.797Z,23.58
2022-08-08T01:48:31.454Z,23.57
2022-08-08T01:51:06.178Z,23.55
2022-08-08T01:55:27.111Z,23.47
2022-08-08T01:56:50.504Z,23.48
2022-08-08T01:59:38.181Z,23.47
2022-08-08T02:02:34.906Z,23.46
2022-08-08T02:05:33.873Z,23.47
2022-08-08T02:08:18.345Z,23.45
2022-08-08T02:11:05.610Z,23.46
2022-08-08T02:13:53.785Z,23.43
2022-08-08T02:16:23.754Z,23.35
2022-08-08T02:18:58.712Z,23.32
2022-08-08T02:21:49.124Z,23.32
2022-08-08T02:24:38.442Z,23.33
2022-08-08T02:27:19.022Z,23.31
2022-08-08T02:29:52.784Z,23.29
2022-08-08T02:32:34.708Z,23.29
2022-08-08T02:35:10.408Z,23.29
2022-08-08T02:38:12.728Z,23.23
2022-08-08T02:40:45.330Z,23.20
2022-08-08T02:44:36.932Z,23.19
2022-08-08T02:46:37.027Z,23.14
2022-08-08T02:49:18.717Z,23.08
2022-08-08T02:52:35.355Z,23.05
2022-08-08T02:54:52.849Z,23.00
2022-08-08T02:57:44.986Z,22.95
2022-08-08T03:00:35.802Z,22.90
2022-08-08T03:03:46.156Z,22.85
2022-08-08T03:06:24.297Z,22.76
2022-08-08T03:09:08.513Z,22.81
2022-08-08T03:12:02.835Z,22.83
2022-08-08T03:16:02.682Z,22.86
2022-08-08T03:17:40.637Z,22.83
2022-08-08T03:20:13.603Z,22.92
2022-08-08T03:22:46.327Z,22.94
2022-08-08T03:25:18.557Z,22.96
2022-08-08T03:27:56.791Z,22.98
2022-08-08T03:30:25.526Z,22.94
2022-08-08T03:33:56.724Z,22.94
2022-08-08T03:36:01.910Z,22.88
2022-08-08T03:38:57.288Z,22.94
2022-08-08T03:42:13.059Z,23.01
2022-08-08T03:44:07.122Z,22.99
2022-08-08T03:46:49.206Z,23.00
2022-08-08T03:49:58.520Z,22.99
2022-08-08T03:52:13.276Z,23.03
2022-08-08T03:55:10.104Z,23.08
2022-08-08T03:58:09.524Z,23.00
2022-08-08T04:00:31.829Z,23.02
2022-08-08T04:03:11.498Z,23.18
2022-08-08T04:05:47.955Z,23.18
2022-08-08T04:08:32.981Z,23.34
2022-08-08T04:11:10.861Z,23.31
2022-08-08T04:14:03.288Z,23.18
2022-08-08T04:16:38.720Z,23.09
2022-08-08T04:19:24.004Z,23.04
2022-08-08T04:21:56.977Z,23.01
2022-08-08T04:24:29.385Z,23.01
2022-08-08T04:27:00.840Z,22.99
2022-08-08T04:29:33.361Z,23.03
2022-08-08T04:32:08.286Z,23.00
2022-08-08T04:34:42.928Z,22.97
2022-08-08T04:37:31.517Z,22.95
2022-08-08T04:40:05.274Z,22.97
2022-08-08T04:42:46.645Z,22.90
2022-08-08T04:45:27.779Z,22.90
2022-08-08T04:48:00.778Z,22.92
2022-08-08T04:50:37.905Z,23.08
2022-08-08T04:53:14.065Z,23.09
2022-08-08T04:55:56.821Z,23.15
2022-08-08T04:58:27.719Z,23.19
2022-08-08T05:00:57.372Z,23.28
2022-08-08T05:04:10.586Z,23.38
2022-08-08T05:06:18.384Z,23.43
2022-08-08T05:08:54.222Z,23.50
2022-08-08T05:11:26.251Z,23.51
2022-08-08T05:14:01.316Z,23.49
2022-08-08T05:16:54.721Z,23.44
2022-08-08T05:20:10.475Z,23.43
2022-08-08T05:22:10.336Z,23.45
2022-08-08T05:24:42.019Z,23.50
2022-08-08T05:27:16.827Z,23.52
2022-08-08T05:29:45.300Z,23.59
2022-08-08T05:32:17.975Z,23.69
2022-08-08T05:34:50.321Z,23.68
2022-08-08T05:37:39.188Z,23.69
2022-08-08T05:40:16.779Z,23.87
2022-08-08T05:42:46.276Z,23.91
2022-08-08T05:45:25.186Z,23.86
2022-08-08T05:48:08.612Z,23.82
2022-08-08T05:50:38.972Z,23.66
2022-08-08T05:53:53.693Z,23.64
2022-08-08T05:56:07.904Z,23.73
2022-08-08T05:58:53.619Z,23.73
2022-08-08T06:01:51.770Z,23.56
2022-08-08T06:04:23.796Z,23.50
2022-08-08T06:06:56.566Z,23.51
2022-08-08T06:09:59.320Z,23.52
2022-08-08T06:12:30.533Z,23.56
2022-08-08T06:15:02.770Z,23.64
2022-08-08T06:17:51.002Z,23.70
2022-08-08T06:20:23.088Z,23.72
2022-08-08T06:22:54.458Z,23.83
2022-08-08T06:25:33.317Z,23.94
2022-08-08T06:28:16.054Z,24.03
2022-08-08T06:30:45.207Z,24.05
2022-08-08T06:33:15.204Z,24.18
2022-08-08T06:36:04.920Z,24.28
2022-08-08T06:38:35.918Z,24.25
2022-08-08T06:41:08.105Z,24.31
2022-08-08T06:43:41.532Z,24.22
2022-08-08T06:46:23.605Z,24.32
2022-08-08T06:48:52.783Z,24.28
2022-08-08T06:51:22.390Z,24.25
2022-08-08T06:53:51.361Z,24.28
2022-08-08T06:56:26.894Z,24.27
2022-08-08T06:58:54.810Z,24.32
2022-08-08T07:01:24.729Z,24.44
2022-08-08T07:04:40.708Z,24.45
2022-08-08T07:07:11.606Z,24.62
2022-08-08T07:09:59.416Z,24.69
2022-08-08T07:12:49.476Z,24.78
2022-08-08T07:16:05.238Z,24.81
2022-08-08T07:18:40.586Z,24.91
2022-08-08T07:21:18.579Z,24.93
2022-08-08T07:24:09.482Z,25.06
2022-08-08T07:26:53.211Z,25.26
2022-08-08T07:29:59.623Z,25.17
2022-08-08T07:32:17.249Z,25.11
2022-08-08T07:35:00.531Z,25.14
2022-08-08T07:37:49.769Z,25.14
2022-08-08T07:40:32.344Z,25.17
2022-08-08T07:43:09.591Z,25.24
2022-08-08T07:46:04.732Z,25.22
2022-08-08T07:48:31.483Z,25.23
2022-08-08T07:51:01.300Z,25.17
2022-08-08T07:54:02.337Z,25.15
2022-08-08T07:56:36.173Z,25.13
2022-08-08T07:59:11.491Z,25.30
2022-08-08T08:02:35.398Z,25.38
2022-08-08T08:04:55.639Z,25.42
2022-08-08T08:07:32.103Z,25.42
2022-08-08T08:10:04.698Z,25.54
2022-08-08T08:12:41.238Z,25.69
2022-08-08T08:15:17.118Z,25.84
2022-08-08T08:17:55.343Z,25.88
2022-08-08T08:20:30.175Z,25.99
2022-08-08T08:22:58.700Z,26.14
2022-08-08T08:25:42.841Z,26.10
2022-08-08T08:28:21.556Z,26.18
2022-08-08T08:30:56.611Z,26.20
2022-08-08T08:33:26.379Z,26.30
2022-08-08T08:36:21.077Z,26.43
2022-08-08T08:38:49.783Z,26.55
2022-08-08T08:41:24.132Z,26.54
2022-08-08T08:44:14.232Z,26.53
2022-08-08T08:46:45.402Z,26.74
2022-08-08T08:49:15.714Z,26.76
2022-08-08T08:51:51.023Z,26.91
2022-08-08T08:54:25.393Z,26.99
2022-08-08T08:56:54.944Z,26.97
2022-08-08T08:59:58.746Z,26.97
2022-08-08T09:02:18.943Z,27.08
2022-08-08T09:04:50.294Z,27.05
2022-08-08T09:07:23.419Z,27.39
2022-08-08T09:09:57.705Z,27.03
2022-08-08T09:12:40.090Z,27.04
2022-08-08T09:15:12.766Z,27.04
2022-08-08T09:17:55.438Z,27.20
2022-08-08T09:22:01.476Z,27.36
2022-08-08T09:23:17.866Z,27.73
2022-08-08T09:26:02.422Z,27.83
2022-08-08T09:28:38.603Z,28.15
2022-08-08T09:31:16.278Z,28.35
2022-08-08T09:34:14.936Z,28.56
2022-08-08T09:36:40.377Z,28.60
2022-08-08T09:39:20.883Z,28.75
2022-08-08T09:42:21.280Z,28.36
2022-08-08T09:45:08.048Z,28.22
2022-08-08T09:48:09.754Z,28.06
2022-08-08T09:50:32.544Z,27.82
2022-08-08T09:53:15.325Z,27.82
2022-08-08T09:56:04.646Z,27.90
2022-08-08T09:58:41.431Z,28.09
2022-08-08T10:01:14.332Z,27.98
2022-08-08T10:03:46.129Z,28.04
2022-08-08T10:06:29.362Z,28.37
2022-08-08T10:08:57.533Z,28.07
2022-08-08T10:12:26.402Z,28.18
2022-08-08T10:14:28.242Z,28.42
2022-08-08T10:16:59.794Z,28.40
2022-08-08T10:19:45.974Z,28.10
2022-08-08T10:22:24.231Z,28.04
2022-08-08T10:24:54.744Z,27.96
2022-08-08T10:27:26.325Z,28.12
2022-08-08T10:29:59.925Z,28.12
2022-08-08T10:32:40.317Z,28.11
2022-08-08T10:35:20.633Z,28.23
2022-08-08T10:38:05.358Z,28.35
2022-08-08T10:40:33.187Z,28.36
2022-08-08T10:43:05.029Z,28.42
2022-08-08T10:45:42.355Z,28.42
2022-08-08T10:48:31.833Z,28.49
2022-08-08T10:51:11.217Z,28.57
2022-08-08T10:53:56.562Z,28.67
2022-08-08T10:56:27.870Z,28.60
2022-08-08T10:59:00.394Z,28.63
2022-08-08T11:01:29.105Z,28.63
2022-08-08T11:04:04.491Z,28.56
2022-08-08T11:06:34.167Z,28.43
2022-08-08T11:09:14.962Z,28.66
2022-08-08T11:12:05.564Z,28.65
2022-08-08T11:14:34.748Z,28.77
2022-08-08T11:17:03.025Z,28.87
2022-08-08T11:19:33.699Z,29.07
2022-08-08T11:22:04.101Z,28.97
2022-08-08T11:24:33.524Z,29.13
2022-08-08T11:27:19.118Z,29.20
2022-08-08T11:30:18.601Z,29.29
2022-08-08T11:32:38.071Z,29.25
2022-08-08T11:35:23.501Z,29.26
2022-08-08T11:38:35.148Z,29.27
2022-08-08T11:40:51.256Z,29.11
2022-08-08T11:43:21.559Z,29.11
2022-08-08T11:46:10.006Z,29.14
2022-08-08T11:48:38.711Z,29.15
2022-08-08T11:51:30.445Z,29.17
2022-08-08T11:53:58.888Z,29.07
2022-08-08T11:56:32.545Z,29.11
2022-08-08T11:59:11.794Z,29.16
2022-08-08T12:01:39.179Z,29.21
2022-08-08T12:04:08.068Z,28.88
2022-08-08T12:06:35.582Z,28.79
2022-08-08T12:09:09.649Z,28.86
2022-08-08T12:11:46.013Z,28.98
2022-08-08T12:14:24.040Z,29.03
2022-08-08T12:16:57.227Z,29.08
2022-08-08T12:19:37.766Z,29.08
2022-08-08T12:22:20.608Z,29.10
2022-08-08T12:24:53.832Z,29.13
2022-08-08T12:27:26.709Z,29.08
2022-08-08T12:29:56.167Z,29.07
2022-08-08T12:32:23.469Z,29.02
2022-08-08T12:35:13.387Z,28.99
2022-08-08T12:38:00.937Z,28.95
2022-08-08T12:40:54.823Z,28.94
2022-08-08T12:43:31.984Z,28.89
2022-08-08T12:46:02.991Z,28.81
2022-08-08T12:48:36.428Z,28.75
2022-08-08T12:51:10.884Z,28.74
2022-08-08T12:53:44.823Z,28.78
2022-08-08T12:56:18.807Z,28.73
2022-08-08T12:58:54.317Z,28.72
2022-08-08T13:01:42.892Z,28.72
2022-08-08T13:04:19.135Z,28.70
2022-08-08T13:06:58.621Z,28.70
2022-08-08T13:09:33.209Z,28.73
2022-08-08T13:12:24.728Z,28.78
2022-08-08T13:14:52.907Z,28.86
2022-08-08T13:18:08.672Z,28.94
2022-08-08T13:20:18.208Z,29.00
2022-08-08T13:22:46.357Z,29.08
2022-08-08T13:25:16.097Z,29.18
2022-08-08T13:27:44.457Z,29.19
2022-08-08T13:30:21.229Z,29.23
2022-08-08T13:32:57.593Z,29.14
2022-08-08T13:35:29.574Z,29.17
2022-08-08T13:38:08.139Z,29.20
2022-08-08T13:40:41.361Z,29.21
2022-08-08T13:43:09.031Z,29.14
2022-08-08T13:45:37.620Z,29.17
2022-08-08T13:48:11.523Z,29.18
2022-08-08T13:50:50.809Z,29.15
2022-08-08T13:53:34.083Z,29.22
2022-08-08T13:56:10.982Z,29.24
2022-08-08T13:58:58.382Z,29.26
2022-08-08T14:01:32.894Z,29.28
2022-08-08T14:04:21.550Z,29.33
2022-08-08T14:06:49.044Z,29.39
2022-08-08T14:09:24.402Z,29.38
2022-08-08T14:11:58.242Z,29.20
2022-08-08T14:14:39.578Z,29.23
2022-08-08T14:17:07.582Z,29.22
2022-08-08T14:19:58.117Z,29.24
2022-08-08T14:22:36.498Z,29.16
2022-08-08T14:25:07.697Z,29.16
2022-08-08T14:27:40.592Z,29.23
2022-08-08T14:30:18.021Z,29.31
2022-08-08T14:32:47.450Z,29.36
2022-08-08T14:35:35.411Z,29.45
2022-08-08T14:38:34.722Z,29.39
2022-08-08T14:40:59.355Z,29.38
2022-08-08T14:44:02.188Z,29.39
2022-08-08T14:46:16.693Z,29.29
2022-08-08T14:48:57.074Z,29.29
2022-08-08T14:51:46.998Z,29.30
2022-08-08T14:54:16.191Z,29.31
2022-08-08T14:56:57.173Z,29.28
2022-08-08T14:59:44.359Z,29.33
2022-08-08T15:02:13.976Z,29.35
2022-08-08T15:04:43.429Z,29.39
2022-08-08T15:07:24.494Z,29.39
2022-08-08T15:10:01.057Z,29.39
2022-08-08T15:12:28.889Z,29.41
2022-08-08T15:14:56.702Z,29.32
2022-08-08T15:17:23.993Z,29.25
2022-08-08T15:19:51.714Z,29.23
2022-08-08T15:22:23.757Z,29.27
2022-08-08T15:24:51.501Z,29.31
2022-08-08T15:27:58.286Z,29.33
2022-08-08T15:30:12.299Z,29.39
2022-08-08T15:32:40.598Z,29.41
2022-08-08T15:35:10.943Z,29.44
2022-08-08T15:37:38.521Z,29.59
2022-08-08T15:40:11.130Z,29.51
2022-08-08T15:42:39.596Z,29.50
2022-08-08T15:45:07.170Z,29.50
2022-08-08T15:47:34.437Z,29.52
2022-08-08T15:50:02.610Z,29.52
2022-08-08T15:52:31.288Z,29.50
2022-08-08T15:55:00.474Z,29.51
2022-08-08T15:57:35.197Z,29.50
2022-08-08T16:00:05.913Z,29.43
2022-08-08T16:02:53.123Z,29.33
2022-08-08T16:05:23.539Z,29.33
2022-08-08T16:07:53.824Z,29.34
2022-08-08T16:13:10.233Z,29.36
2022-08-08T16:13:29.954Z,29.42
2022-08-08T16:16:09.282Z,29.44
2022-08-08T16:18:44.673Z,29.45
2022-08-08T16:21:27.080Z,29.46
2022-08-08T16:23:56.303Z,29.46
2022-08-08T16:26:34.720Z,29.45
2022-08-08T16:29:15.616Z,29.47
2022-08-08T16:31:49.094Z,29.46
2022-08-08T16:34:18.805Z,29.47
2022-08-08T16:36:49.321Z,29.44
2022-08-08T16:39:48.944Z,29.42
2022-08-08T16:42:06.044Z,29.42
2022-08-08T16:44:34.308Z,29.40
2022-08-08T16:47:16.851Z,29.39
2022-08-08T16:49:44.573Z,29.39
2022-08-08T16:55:00.526Z,29.40
2022-08-08T16:55:34.366Z,29.38
2022-08-08T16:58:16.349Z,29.38
2022-08-08T17:00:42.782Z,29.34
2022-08-08T17:03:24.447Z,29.35
2022-08-08T17:05:53.764Z,29.34
2022-08-08T17:08:23.592Z,29.32
2022-08-08T17:10:58.075Z,29.30
2022-08-08T17:13:27.529Z,29.28
2022-08-08T17:16:15.452Z,29.26
2022-08-08T17:18:43.564Z,29.25
2022-08-08T17:21:13.753Z,29.21
2022-08-08T17:24:00.066Z,29.19
2022-08-08T17:26:29.276Z,29.18
2022-08-08T17:28:57.326Z,29.18
2022-08-08T17:31:44.141Z,29.17
2022-08-08T17:34:52.897Z,29.17
2022-08-08T17:37:09.079Z,29.15
2022-08-08T17:40:05.029Z,29.10
2022-08-08T17:42:24.542Z,29.09
2022-08-08T17:44:52.676Z,29.07
2022-08-08T17:47:27.377Z,29.06
2022-08-08T17:50:01.459Z,29.03
2022-08-08T17:52:34.077Z,29.00
2022-08-08T17:55:05.447Z,28.99
2022-08-08T17:57:50.842Z,28.99
2022-08-08T18:00:25.908Z,28.86
2022-08-08T18:03:08.316Z,28.79
2022-08-08T18:05:48.470Z,28.75
2022-08-08T18:08:24.625Z,28.67
2022-08-08T18:11:06.297Z,28.65
2022-08-08T18:13:35.034Z,28.62
2022-08-08T18:16:09.685Z,28.60
2022-08-08T18:18:42.443Z,28.53
2022-08-08T18:21:35.276Z,28.51
2022-08-08T18:23:59.865Z,28.51
2022-08-08T18:26:28.180Z,28.48
2022-08-08T18:28:56.535Z,28.40
2022-08-08T18:31:27.780Z,28.38
2022-08-08T18:34:25.769Z,28.34
2022-08-08T18:36:44.552Z,28.34
2022-08-08T18:39:16.518Z,28.24
2022-08-08T18:41:58.097Z,28.19
2022-08-08T18:44:27.674Z,28.17
2022-08-08T18:46:57.941Z,28.13
2022-08-08T18:49:32.575Z,28.27
2022-08-08T18:52:18.631Z,28.19
2022-08-08T18:55:00.652Z,28.03
2022-08-08T18:57:41.939Z,28.03
2022-08-08T19:00:16.575Z,27.99
2022-08-08T19:02:55.446Z,27.94
2022-08-08T19:05:32.486Z,27.87
2022-08-08T19:08:09.241Z,27.87
2022-08-08T19:10:37.732Z,27.89
2022-08-08T19:13:20.781Z,27.88
2022-08-08T19:15:51.891Z,27.90
2022-08-08T19:18:33.248Z,27.90
2022-08-08T19:21:29.272Z,27.84
2022-08-08T19:23:57.574Z,27.80
2022-08-08T19:26:29.702Z,27.76
2022-08-08T19:28:59.328Z,27.78
2022-08-08T19:31:31.070Z,27.86
2022-08-08T19:34:30.464Z,27.87
2022-08-08T19:36:46.569Z,27.82
2022-08-08T19:39:15.466Z,27.73
2022-08-08T19:41:42.720Z,27.66
2022-08-08T19:44:12.826Z,27.57
2022-08-08T19:46:40.747Z,27.60
2022-08-08T19:49:09.643Z,27.63
2022-08-08T19:51:41.483Z,27.69
2022-08-08T19:54:11.387Z,27.77
2022-08-08T19:56:41.457Z,27.77
2022-08-08T19:59:15.892Z,27.76
2022-08-08T20:02:01.087Z,27.75
2022-08-08T20:04:31.180Z,27.70
2022-08-08T20:07:03.487Z,27.64
2022-08-08T20:09:32.683Z,27.59
2022-08-08T20:12:11.749Z,27.58
2022-08-08T20:14:51.749Z,27.53
2022-08-08T20:17:27.748Z,27.42
2022-08-08T20:20:08.487Z,27.38
2022-08-08T20:22:38.710Z,27.42
2022-08-08T20:25:14.103Z,27.51
2022-08-08T20:27:43.817Z,27.48
2022-08-08T20:30:53.146Z,27.51
2022-08-08T20:33:04.913Z,27.58
2022-08-08T20:35:56.920Z,27.61
2022-08-08T20:38:32.538Z,27.46
2022-08-08T20:41:05.384Z,27.47
2022-08-08T20:43:43.055Z,27.33
2022-08-08T20:46:11.607Z,27.32
2022-08-08T20:48:38.972Z,27.28
2022-08-08T20:51:08.286Z,27.21
2022-08-08T20:53:59.204Z,27.21
2022-08-08T20:56:35.339Z,27.13
2022-08-08T20:59:05.968Z,27.07
2022-08-08T21:02:05.436Z,26.99
2022-08-08T21:04:21.152Z,26.87
2022-08-08T21:06:52.748Z,26.78
2022-08-08T21:09:21.833Z,26.75
2022-08-08T21:11:50.634Z,26.71
2022-08-08T21:14:30.249Z,26.68
2022-08-08T21:17:01.496Z,26.63
2022-08-08T21:19:44.314Z,26.60
2022-08-08T21:22:14.306Z,26.60
2022-08-08T21:24:42.063Z,26.61
2022-08-08T21:28:05.887Z,26.69
2022-08-08T21:30:12.363Z,26.71
2022-08-08T21:32:52.298Z,26.70
2022-08-08T21:36:18.000Z,26.80
2022-08-08T21:38:17.064Z,26.93
2022-08-08T21:40:56.474Z,27.02
2022-08-08T21:43:25.283Z,27.06
2022-08-08T21:48:06.011Z,27.07
2022-08-08T21:48:41.639Z,27.11
2022-08-08T21:51:13.305Z,27.18
2022-08-08T21:54:32.491Z,27.23
2022-08-08T21:56:38.173Z,27.24
2022-08-08T21:59:10.749Z,27.25
2022-08-08T22:01:42.831Z,27.15
2022-08-08T22:04:11.432Z,27.10
2022-08-08T22:06:40.400Z,27.12
2022-08-08T22:09:09.427Z,27.07
2022-08-08T22:12:02.873Z,27.06
2022-08-08T22:14:26.552Z,27.03
2022-08-08T22:16:56.285Z,27.03
2022-08-08T22:19:24.257Z,27.03
2022-08-08T22:21:53.082Z,27.04
2022-08-08T22:24:28.062Z,27.06
2022-08-08T22:27:01.616Z,27.06
2022-08-08T22:30:01.358Z,27.03
2022-08-08T22:32:18.896Z,26.99
2022-08-08T22:34:51.074Z,26.97
2022-08-08T22:37:27.586Z,27.01
2022-08-08T22:40:07.652Z,26.97
2022-08-08T22:42:47.115Z,26.98
2022-08-08T22:45:15.606Z,26.87
2022-08-08T22:47:48.650Z,26.82
2022-08-08T22:50:26.178Z,26.78
2022-08-08T22:54:27.802Z,26.79
2022-08-08T22:55:58.481Z,26.81
2022-08-08T22:58:31.017Z,26.72
2022-08-08T23:00:59.765Z,26.71
2022-08-08T23:03:53.809Z,26.72
2022-08-08T23:06:16.581Z,26.72
2022-08-08T23:08:54.569Z,26.73
2022-08-08T23:11:58.064Z,26.62
2022-08-08T23:14:11.940Z,26.62
2022-08-08T23:16:43.569Z,26.63
2022-08-08T23:19:11.884Z,26.67
2022-08-08T23:21:39.215Z,26.61
2022-08-08T23:24:07.017Z,26.69
2022-08-08T23:26:34.488Z,26.69
2022-08-08T23:29:02.059Z,26.68
2022-08-08T23:31:29.233Z,26.67
2022-08-08T23:34:17.164Z,26.69
2022-08-08T23:36:46.868Z,26.58
2022-08-08T23:39:14.690Z,26.53
2022-08-08T23:41:46.877Z,26.58
2022-08-08T23:44:18.762Z,26.53
2022-08-08T23:49:07.325Z,26.48
2022-08-08T23:49:34.331Z,26.50
2022-08-08T23:52:05.473Z,26.42
2022-08-08T23:54:41.402Z,26.44
2022-08-08T23:57:26.678Z,26.43
